sensor_id;sensor_type;location;lat;lon;timestamp;P1;durP1;ratioP1;P2;durP2;ratioP2
82990;SDS011;72806;50.832;4.864;2023-12-20T00:02:18;9.18;;;2.50;;
82990;SDS011;72806;50.832;4.864;2023-12-20T00:04:45;6.85;;;1.58;;
82990;SDS011;72806;50.832;4.864;2023-12-20T00:07:12;7.18;;;1.73;;
82990;SDS011;72806;50.832;4.864;2023-12-20T00:09:40;6.30;;;1.80;;
82990;SDS011;72806;50.832;4.864;2023-12-20T00:12:07;4.47;;;2.20;;
82990;SDS011;72806;50.832;4.864;2023-12-20T00:14:34;5.65;;;1.70;;
82990;SDS011;72806;50.832;4.864;2023-12-20T00:17:01;12.43;;;2.05;;
82990;SDS011;72806;50.832;4.864;2023-12-20T00:19:30;10.35;;;1.98;;
82990;SDS011;72806;50.832;4.864;2023-12-20T00:21:57;6.88;;;1.63;;
82990;SDS011;72806;50.832;4.864;2023-12-20T00:24:24;8.40;;;1.73;;
82990;SDS011;72806;50.832;4.864;2023-12-20T00:26:52;6.60;;;1.90;;
82990;SDS011;72806;50.832;4.864;2023-12-20T00:29:19;5.80;;;1.52;;
82990;SDS011;72806;50.832;4.864;2023-12-20T00:31:46;9.77;;;1.90;;
82990;SDS011;72806;50.832;4.864;2023-12-20T00:34:13;8.30;;;1.83;;
82990;SDS011;72806;50.832;4.864;2023-12-20T00:36:42;9.50;;;1.83;;
82990;SDS011;72806;50.832;4.864;2023-12-20T00:39:09;7.70;;;2.05;;
82990;SDS011;72806;50.832;4.864;2023-12-20T00:41:36;8.45;;;1.73;;
82990;SDS011;72806;50.832;4.864;2023-12-20T00:44:04;8.50;;;1.92;;
82990;SDS011;72806;50.832;4.864;2023-12-20T00:46:31;6.80;;;2.53;;
82990;SDS011;72806;50.832;4.864;2023-12-20T00:48:58;4.15;;;1.80;;
82990;SDS011;72806;50.832;4.864;2023-12-20T00:51:25;9.63;;;1.90;;
82990;SDS011;72806;50.832;4.864;2023-12-20T00:53:54;4.68;;;1.65;;
82990;SDS011;72806;50.832;4.864;2023-12-20T00:56:21;10.32;;;1.90;;
82990;SDS011;72806;50.832;4.864;2023-12-20T00:58:49;1.98;;;1.42;;
82990;SDS011;72806;50.832;4.864;2023-12-20T01:01:16;9.07;;;2.35;;
82990;SDS011;72806;50.832;4.864;2023-12-20T01:03:43;6.45;;;1.70;;
82990;SDS011;72806;50.832;4.864;2023-12-20T01:06:11;4.22;;;1.65;;
82990;SDS011;72806;50.832;4.864;2023-12-20T01:08:38;8.82;;;1.77;;
82990;SDS011;72806;50.832;4.864;2023-12-20T01:11:06;3.75;;;1.52;;
82990;SDS011;72806;50.832;4.864;2023-12-20T01:13:34;11.00;;;1.90;;
82990;SDS011;72806;50.832;4.864;2023-12-20T01:16:01;11.77;;;1.45;;
82990;SDS011;72806;50.832;4.864;2023-12-20T01:18:29;12.40;;;2.20;;
82990;SDS011;72806;50.832;4.864;2023-12-20T01:20:56;4.45;;;1.45;;
82990;SDS011;72806;50.832;4.864;2023-12-20T01:23:28;7.22;;;1.55;;
82990;SDS011;72806;50.832;4.864;2023-12-20T01:25:55;6.18;;;1.90;;
82990;SDS011;72806;50.832;4.864;2023-12-20T01:28:23;8.23;;;1.55;;
82990;SDS011;72806;50.832;4.864;2023-12-20T01:30:50;7.93;;;1.77;;
82990;SDS011;72806;50.832;4.864;2023-12-20T01:33:17;7.97;;;1.90;;
82990;SDS011;72806;50.832;4.864;2023-12-20T01:35:44;9.63;;;2.53;;
82990;SDS011;72806;50.832;4.864;2023-12-20T01:38:11;7.88;;;2.20;;
82990;SDS011;72806;50.832;4.864;2023-12-20T01:40:38;9.70;;;1.65;;
82990;SDS011;72806;50.832;4.864;2023-12-20T01:43:07;9.15;;;1.92;;
82990;SDS011;72806;50.832;4.864;2023-12-20T01:45:38;12.77;;;2.30;;
82990;SDS011;72806;50.832;4.864;2023-12-20T01:48:05;9.95;;;1.80;;
82990;SDS011;72806;50.832;4.864;2023-12-20T01:50:33;4.78;;;1.83;;
82990;SDS011;72806;50.832;4.864;2023-12-20T01:53:03;6.72;;;2.15;;
82990;SDS011;72806;50.832;4.864;2023-12-20T01:55:32;7.90;;;2.25;;
82990;SDS011;72806;50.832;4.864;2023-12-20T01:58:01;8.75;;;1.95;;
82990;SDS011;72806;50.832;4.864;2023-12-20T02:00:29;5.88;;;1.95;;
82990;SDS011;72806;50.832;4.864;2023-12-20T02:02:59;4.38;;;1.73;;
82990;SDS011;72806;50.832;4.864;2023-12-20T02:05:28;11.25;;;2.65;;
82990;SDS011;72806;50.832;4.864;2023-12-20T02:07:56;8.32;;;2.40;;
82990;SDS011;72806;50.832;4.864;2023-12-20T02:10:23;8.60;;;2.15;;
82990;SDS011;72806;50.832;4.864;2023-12-20T02:12:51;10.80;;;2.72;;
82990;SDS011;72806;50.832;4.864;2023-12-20T02:15:18;8.95;;;2.10;;
82990;SDS011;72806;50.832;4.864;2023-12-20T02:17:46;8.40;;;2.15;;
82990;SDS011;72806;50.832;4.864;2023-12-20T02:20:16;5.57;;;1.80;;
82990;SDS011;72806;50.832;4.864;2023-12-20T02:22:44;9.50;;;2.30;;
82990;SDS011;72806;50.832;4.864;2023-12-20T02:25:12;4.53;;;2.05;;
82990;SDS011;72806;50.832;4.864;2023-12-20T02:27:39;5.25;;;1.92;;
82990;SDS011;72806;50.832;4.864;2023-12-20T02:30:07;7.43;;;2.00;;
82990;SDS011;72806;50.832;4.864;2023-12-20T02:32:34;10.32;;;2.40;;
82990;SDS011;72806;50.832;4.864;2023-12-20T02:35:01;17.58;;;3.03;;
82990;SDS011;72806;50.832;4.864;2023-12-20T02:37:29;13.52;;;2.78;;
82990;SDS011;72806;50.832;4.864;2023-12-20T02:39:57;14.45;;;2.67;;
82990;SDS011;72806;50.832;4.864;2023-12-20T02:42:24;12.00;;;2.80;;
82990;SDS011;72806;50.832;4.864;2023-12-20T02:44:51;4.90;;;2.00;;
82990;SDS011;72806;50.832;4.864;2023-12-20T02:47:18;13.13;;;2.53;;
82990;SDS011;72806;50.832;4.864;2023-12-20T02:49:46;8.30;;;2.70;;
82990;SDS011;72806;50.832;4.864;2023-12-20T02:52:14;14.68;;;2.88;;
82990;SDS011;72806;50.832;4.864;2023-12-20T02:54:41;15.05;;;2.70;;
82990;SDS011;72806;50.832;4.864;2023-12-20T02:57:09;12.90;;;2.70;;
82990;SDS011;72806;50.832;4.864;2023-12-20T02:59:36;10.88;;;2.63;;
82990;SDS011;72806;50.832;4.864;2023-12-20T03:02:03;10.50;;;2.42;;
82990;SDS011;72806;50.832;4.864;2023-12-20T03:04:31;14.40;;;2.90;;
82990;SDS011;72806;50.832;4.864;2023-12-20T03:06:58;15.93;;;3.20;;
82990;SDS011;72806;50.832;4.864;2023-12-20T03:09:25;9.75;;;2.35;;
82990;SDS011;72806;50.832;4.864;2023-12-20T03:11:52;10.30;;;2.50;;
82990;SDS011;72806;50.832;4.864;2023-12-20T03:14:20;16.55;;;3.17;;
82990;SDS011;72806;50.832;4.864;2023-12-20T03:16:48;7.25;;;2.72;;
82990;SDS011;72806;50.832;4.864;2023-12-20T03:19:16;8.32;;;2.13;;
82990;SDS011;72806;50.832;4.864;2023-12-20T03:21:44;13.90;;;2.63;;
82990;SDS011;72806;50.832;4.864;2023-12-20T03:24:11;6.88;;;2.40;;
82990;SDS011;72806;50.832;4.864;2023-12-20T03:26:38;12.45;;;2.30;;
82990;SDS011;72806;50.832;4.864;2023-12-20T03:29:06;11.50;;;2.47;;
82990;SDS011;72806;50.832;4.864;2023-12-20T03:31:34;8.45;;;2.72;;
82990;SDS011;72806;50.832;4.864;2023-12-20T03:34:01;7.72;;;2.72;;
82990;SDS011;72806;50.832;4.864;2023-12-20T03:36:28;10.98;;;2.95;;
82990;SDS011;72806;50.832;4.864;2023-12-20T03:38:55;15.10;;;2.60;;
82990;SDS011;72806;50.832;4.864;2023-12-20T03:41:22;8.85;;;2.50;;
82990;SDS011;72806;50.832;4.864;2023-12-20T03:43:49;11.75;;;2.40;;
82990;SDS011;72806;50.832;4.864;2023-12-20T03:46:17;6.38;;;2.72;;
82990;SDS011;72806;50.832;4.864;2023-12-20T03:48:46;12.02;;;2.75;;
82990;SDS011;72806;50.832;4.864;2023-12-20T03:51:13;18.38;;;2.72;;
82990;SDS011;72806;50.832;4.864;2023-12-20T03:53:40;13.45;;;3.03;;
82990;SDS011;72806;50.832;4.864;2023-12-20T03:56:07;10.02;;;2.17;;
82990;SDS011;72806;50.832;4.864;2023-12-20T03:58:34;9.95;;;2.72;;
82990;SDS011;72806;50.832;4.864;2023-12-20T04:01:01;16.63;;;3.83;;
82990;SDS011;72806;50.832;4.864;2023-12-20T04:03:29;9.93;;;2.67;;
82990;SDS011;72806;50.832;4.864;2023-12-20T04:05:57;12.68;;;3.25;;
82990;SDS011;72806;50.832;4.864;2023-12-20T04:08:24;13.02;;;2.60;;
82990;SDS011;72806;50.832;4.864;2023-12-20T04:10:51;16.35;;;3.55;;
82990;SDS011;72806;50.832;4.864;2023-12-20T04:13:18;10.18;;;3.20;;
82990;SDS011;72806;50.832;4.864;2023-12-20T04:15:46;12.27;;;3.33;;
82990;SDS011;72806;50.832;4.864;2023-12-20T04:18:15;9.55;;;3.08;;
82990;SDS011;72806;50.832;4.864;2023-12-20T04:20:42;7.45;;;3.05;;
82990;SDS011;72806;50.832;4.864;2023-12-20T04:23:10;10.23;;;2.72;;
82990;SDS011;72806;50.832;4.864;2023-12-20T04:25:38;9.32;;;2.80;;
82990;SDS011;72806;50.832;4.864;2023-12-20T04:28:05;9.23;;;3.28;;
82990;SDS011;72806;50.832;4.864;2023-12-20T04:30:32;12.73;;;3.03;;
82990;SDS011;72806;50.832;4.864;2023-12-20T04:33:00;7.32;;;3.45;;
82990;SDS011;72806;50.832;4.864;2023-12-20T04:35:27;14.82;;;3.25;;
82990;SDS011;72806;50.832;4.864;2023-12-20T04:37:54;15.38;;;3.72;;
82990;SDS011;72806;50.832;4.864;2023-12-20T04:40:23;11.82;;;3.40;;
82990;SDS011;72806;50.832;4.864;2023-12-20T04:42:51;7.10;;;2.75;;
82990;SDS011;72806;50.832;4.864;2023-12-20T04:45:18;12.85;;;3.63;;
82990;SDS011;72806;50.832;4.864;2023-12-20T04:47:45;11.38;;;3.30;;
82990;SDS011;72806;50.832;4.864;2023-12-20T04:50:12;21.75;;;4.00;;
82990;SDS011;72806;50.832;4.864;2023-12-20T04:52:39;11.73;;;3.15;;
82990;SDS011;72806;50.832;4.864;2023-12-20T04:55:07;14.20;;;2.92;;
82990;SDS011;72806;50.832;4.864;2023-12-20T04:57:36;13.55;;;3.28;;
82990;SDS011;72806;50.832;4.864;2023-12-20T05:00:03;19.50;;;3.70;;
82990;SDS011;72806;50.832;4.864;2023-12-20T05:02:33;7.72;;;3.10;;
82990;SDS011;72806;50.832;4.864;2023-12-20T05:05:02;12.25;;;3.35;;
82990;SDS011;72806;50.832;4.864;2023-12-20T05:07:29;13.57;;;2.80;;
82990;SDS011;72806;50.832;4.864;2023-12-20T05:09:56;7.10;;;2.47;;
82990;SDS011;72806;50.832;4.864;2023-12-20T05:12:24;7.07;;;2.75;;
82990;SDS011;72806;50.832;4.864;2023-12-20T05:14:53;11.35;;;3.10;;
82990;SDS011;72806;50.832;4.864;2023-12-20T05:17:20;12.00;;;3.38;;
82990;SDS011;72806;50.832;4.864;2023-12-20T05:19:47;14.00;;;3.17;;
82990;SDS011;72806;50.832;4.864;2023-12-20T05:22:14;13.40;;;3.35;;
82990;SDS011;72806;50.832;4.864;2023-12-20T05:24:42;12.02;;;3.38;;
82990;SDS011;72806;50.832;4.864;2023-12-20T05:27:09;10.07;;;2.75;;
82990;SDS011;72806;50.832;4.864;2023-12-20T05:29:36;16.65;;;3.13;;
82990;SDS011;72806;50.832;4.864;2023-12-20T05:32:05;10.77;;;2.92;;
82990;SDS011;72806;50.832;4.864;2023-12-20T05:34:32;10.52;;;3.40;;
82990;SDS011;72806;50.832;4.864;2023-12-20T05:36:59;10.90;;;3.13;;
82990;SDS011;72806;50.832;4.864;2023-12-20T05:39:28;14.95;;;3.20;;
82990;SDS011;72806;50.832;4.864;2023-12-20T05:41:56;9.43;;;3.15;;
82990;SDS011;72806;50.832;4.864;2023-12-20T05:44:23;10.07;;;3.53;;
82990;SDS011;72806;50.832;4.864;2023-12-20T05:46:51;12.98;;;3.25;;
82990;SDS011;72806;50.832;4.864;2023-12-20T05:49:19;20.60;;;3.92;;
82990;SDS011;72806;50.832;4.864;2023-12-20T05:51:47;17.60;;;4.28;;
82990;SDS011;72806;50.832;4.864;2023-12-20T05:54:14;10.50;;;3.22;;
82990;SDS011;72806;50.832;4.864;2023-12-20T05:56:41;11.55;;;3.53;;
82990;SDS011;72806;50.832;4.864;2023-12-20T05:59:08;11.00;;;3.90;;
82990;SDS011;72806;50.832;4.864;2023-12-20T06:01:35;12.57;;;3.75;;
82990;SDS011;72806;50.832;4.864;2023-12-20T06:04:03;12.57;;;3.35;;
82990;SDS011;72806;50.832;4.864;2023-12-20T06:06:31;11.35;;;3.92;;
82990;SDS011;72806;50.832;4.864;2023-12-20T06:08:59;9.98;;;4.05;;
82990;SDS011;72806;50.832;4.864;2023-12-20T06:11:28;11.32;;;3.90;;
82990;SDS011;72806;50.832;4.864;2023-12-20T06:13:55;9.88;;;3.75;;
82990;SDS011;72806;50.832;4.864;2023-12-20T06:16:22;10.18;;;3.55;;
82990;SDS011;72806;50.832;4.864;2023-12-20T06:18:49;13.02;;;3.50;;
82990;SDS011;72806;50.832;4.864;2023-12-20T06:21:16;15.02;;;3.47;;
82990;SDS011;72806;50.832;4.864;2023-12-20T06:23:45;12.35;;;3.70;;
82990;SDS011;72806;50.832;4.864;2023-12-20T06:26:12;13.07;;;3.55;;
82990;SDS011;72806;50.832;4.864;2023-12-20T06:28:40;8.52;;;3.67;;
82990;SDS011;72806;50.832;4.864;2023-12-20T06:31:07;15.48;;;3.80;;
82990;SDS011;72806;50.832;4.864;2023-12-20T06:33:34;12.38;;;4.03;;
82990;SDS011;72806;50.832;4.864;2023-12-20T06:36:01;13.43;;;3.88;;
82990;SDS011;72806;50.832;4.864;2023-12-20T06:38:28;14.18;;;4.38;;
82990;SDS011;72806;50.832;4.864;2023-12-20T06:40:56;14.93;;;3.80;;
82990;SDS011;72806;50.832;4.864;2023-12-20T06:43:26;14.65;;;3.83;;
82990;SDS011;72806;50.832;4.864;2023-12-20T06:45:54;14.60;;;3.28;;
82990;SDS011;72806;50.832;4.864;2023-12-20T06:48:21;11.05;;;3.55;;
82990;SDS011;72806;50.832;4.864;2023-12-20T06:50:48;11.18;;;3.40;;
82990;SDS011;72806;50.832;4.864;2023-12-20T06:53:15;13.27;;;3.40;;
82990;SDS011;72806;50.832;4.864;2023-12-20T06:55:42;15.48;;;3.33;;
82990;SDS011;72806;50.832;4.864;2023-12-20T06:58:10;11.50;;;3.58;;
82990;SDS011;72806;50.832;4.864;2023-12-20T07:00:38;7.25;;;2.58;;
82990;SDS011;72806;50.832;4.864;2023-12-20T07:03:05;9.13;;;2.88;;
82990;SDS011;72806;50.832;4.864;2023-12-20T07:05:32;13.35;;;2.80;;
82990;SDS011;72806;50.832;4.864;2023-12-20T07:07:59;16.38;;;4.05;;
82990;SDS011;72806;50.832;4.864;2023-12-20T07:10:27;11.98;;;2.88;;
82990;SDS011;72806;50.832;4.864;2023-12-20T07:12:54;13.07;;;2.72;;
82990;SDS011;72806;50.832;4.864;2023-12-20T07:15:22;12.50;;;3.15;;
82990;SDS011;72806;50.832;4.864;2023-12-20T07:17:49;11.77;;;2.67;;
82990;SDS011;72806;50.832;4.864;2023-12-20T07:20:16;13.60;;;3.15;;
82990;SDS011;72806;50.832;4.864;2023-12-20T07:22:44;8.18;;;2.80;;
82990;SDS011;72806;50.832;4.864;2023-12-20T07:25:11;6.18;;;2.47;;
82990;SDS011;72806;50.832;4.864;2023-12-20T07:27:38;19.70;;;2.78;;
82990;SDS011;72806;50.832;4.864;2023-12-20T07:30:06;8.27;;;2.85;;
82990;SDS011;72806;50.832;4.864;2023-12-20T07:32:35;11.85;;;2.30;;
82990;SDS011;72806;50.832;4.864;2023-12-20T07:35:02;10.77;;;2.05;;
82990;SDS011;72806;50.832;4.864;2023-12-20T07:37:30;8.20;;;2.13;;
82990;SDS011;72806;50.832;4.864;2023-12-20T07:39:57;13.23;;;2.70;;
82990;SDS011;72806;50.832;4.864;2023-12-20T07:42:24;9.60;;;2.33;;
82990;SDS011;72806;50.832;4.864;2023-12-20T07:44:52;16.70;;;2.80;;
82990;SDS011;72806;50.832;4.864;2023-12-20T07:47:20;8.27;;;1.77;;
82990;SDS011;72806;50.832;4.864;2023-12-20T07:49:49;14.43;;;2.78;;
82990;SDS011;72806;50.832;4.864;2023-12-20T07:52:16;9.70;;;2.10;;
82990;SDS011;72806;50.832;4.864;2023-12-20T07:54:44;13.65;;;2.22;;
82990;SDS011;72806;50.832;4.864;2023-12-20T07:57:12;11.88;;;2.78;;
82990;SDS011;72806;50.832;4.864;2023-12-20T07:59:39;11.18;;;2.50;;
82990;SDS011;72806;50.832;4.864;2023-12-20T08:02:06;17.52;;;2.70;;
82990;SDS011;72806;50.832;4.864;2023-12-20T08:04:33;9.00;;;2.60;;
82990;SDS011;72806;50.832;4.864;2023-12-20T08:07:02;10.32;;;2.15;;
82990;SDS011;72806;50.832;4.864;2023-12-20T08:09:29;12.65;;;3.15;;
82990;SDS011;72806;50.832;4.864;2023-12-20T08:11:57;13.73;;;2.65;;
82990;SDS011;72806;50.832;4.864;2023-12-20T08:14:25;8.90;;;2.47;;
82990;SDS011;72806;50.832;4.864;2023-12-20T08:16:52;13.70;;;2.70;;
82990;SDS011;72806;50.832;4.864;2023-12-20T08:19:19;5.88;;;1.95;;
82990;SDS011;72806;50.832;4.864;2023-12-20T08:21:46;13.70;;;2.17;;
82990;SDS011;72806;50.832;4.864;2023-12-20T08:24:15;10.10;;;2.50;;
82990;SDS011;72806;50.832;4.864;2023-12-20T08:26:42;10.95;;;2.67;;
82990;SDS011;72806;50.832;4.864;2023-12-20T08:29:09;8.43;;;1.70;;
82990;SDS011;72806;50.832;4.864;2023-12-20T08:31:36;11.85;;;2.58;;
82990;SDS011;72806;50.832;4.864;2023-12-20T08:34:03;12.50;;;2.55;;
82990;SDS011;72806;50.832;4.864;2023-12-20T08:36:30;9.18;;;2.42;;
82990;SDS011;72806;50.832;4.864;2023-12-20T08:38:58;9.65;;;2.63;;
82990;SDS011;72806;50.832;4.864;2023-12-20T08:41:27;12.45;;;2.72;;
82990;SDS011;72806;50.832;4.864;2023-12-20T08:43:55;7.60;;;2.55;;
82990;SDS011;72806;50.832;4.864;2023-12-20T08:46:22;8.27;;;1.90;;
82990;SDS011;72806;50.832;4.864;2023-12-20T08:48:49;11.73;;;2.50;;
82990;SDS011;72806;50.832;4.864;2023-12-20T08:51:16;7.80;;;2.53;;
82990;SDS011;72806;50.832;4.864;2023-12-20T08:53:44;7.75;;;2.35;;
82990;SDS011;72806;50.832;4.864;2023-12-20T08:56:12;5.28;;;1.75;;
82990;SDS011;72806;50.832;4.864;2023-12-20T08:58:41;10.40;;;2.08;;
82990;SDS011;72806;50.832;4.864;2023-12-20T09:01:08;11.80;;;2.78;;
82990;SDS011;72806;50.832;4.864;2023-12-20T09:03:35;5.38;;;1.80;;
82990;SDS011;72806;50.832;4.864;2023-12-20T09:06:03;12.48;;;2.83;;
82990;SDS011;72806;50.832;4.864;2023-12-20T09:08:30;8.88;;;1.80;;
82990;SDS011;72806;50.832;4.864;2023-12-20T09:10:57;5.43;;;1.65;;
82990;SDS011;72806;50.832;4.864;2023-12-20T09:13:25;7.20;;;2.17;;
82990;SDS011;72806;50.832;4.864;2023-12-20T09:15:55;9.45;;;2.05;;
82990;SDS011;72806;50.832;4.864;2023-12-20T09:18:22;6.72;;;1.92;;
82990;SDS011;72806;50.832;4.864;2023-12-20T09:20:49;3.75;;;1.35;;
82990;SDS011;72806;50.832;4.864;2023-12-20T09:23:17;11.23;;;2.38;;
82990;SDS011;72806;50.832;4.864;2023-12-20T09:25:44;8.90;;;2.40;;
82990;SDS011;72806;50.832;4.864;2023-12-20T09:28:11;8.13;;;2.17;;
82990;SDS011;72806;50.832;4.864;2023-12-20T09:30:38;11.70;;;2.25;;
82990;SDS011;72806;50.832;4.864;2023-12-20T09:33:07;4.50;;;2.13;;
82990;SDS011;72806;50.832;4.864;2023-12-20T09:35:34;14.38;;;2.05;;
82990;SDS011;72806;50.832;4.864;2023-12-20T09:38:02;8.45;;;2.20;;
82990;SDS011;72806;50.832;4.864;2023-12-20T09:40:29;6.75;;;2.17;;
82990;SDS011;72806;50.832;4.864;2023-12-20T09:43:03;14.45;;;2.38;;
82990;SDS011;72806;50.832;4.864;2023-12-20T09:45:31;9.77;;;1.88;;
82990;SDS011;72806;50.832;4.864;2023-12-20T09:47:58;9.82;;;3.00;;
82990;SDS011;72806;50.832;4.864;2023-12-20T09:50:27;10.75;;;2.45;;
82990;SDS011;72806;50.832;4.864;2023-12-20T09:52:55;12.00;;;2.35;;
82990;SDS011;72806;50.832;4.864;2023-12-20T09:55:25;12.82;;;2.50;;
82990;SDS011;72806;50.832;4.864;2023-12-20T09:57:54;7.22;;;1.90;;
82990;SDS011;72806;50.832;4.864;2023-12-20T10:00:21;7.07;;;2.20;;
82990;SDS011;72806;50.832;4.864;2023-12-20T10:02:50;11.05;;;2.85;;
82990;SDS011;72806;50.832;4.864;2023-12-20T10:05:28;11.45;;;2.30;;
82990;SDS011;72806;50.832;4.864;2023-12-20T10:07:56;3.20;;;1.60;;
82990;SDS011;72806;50.832;4.864;2023-12-20T10:10:23;8.13;;;1.88;;
82990;SDS011;72806;50.832;4.864;2023-12-20T10:13:03;10.35;;;2.15;;
82990;SDS011;72806;50.832;4.864;2023-12-20T10:15:32;12.40;;;1.77;;
82990;SDS011;72806;50.832;4.864;2023-12-20T10:17:59;14.68;;;2.25;;
82990;SDS011;72806;50.832;4.864;2023-12-20T10:20:28;14.05;;;2.17;;
82990;SDS011;72806;50.832;4.864;2023-12-20T10:22:55;8.68;;;2.05;;
82990;SDS011;72806;50.832;4.864;2023-12-20T10:25:23;6.47;;;2.05;;
82990;SDS011;72806;50.832;4.864;2023-12-20T10:28:08;12.98;;;2.58;;
82990;SDS011;72806;50.832;4.864;2023-12-20T10:30:36;6.88;;;1.65;;
82990;SDS011;72806;50.832;4.864;2023-12-20T10:33:04;16.98;;;2.28;;
82990;SDS011;72806;50.832;4.864;2023-12-20T10:35:34;7.60;;;1.83;;
82990;SDS011;72806;50.832;4.864;2023-12-20T10:38:03;8.68;;;1.77;;
82990;SDS011;72806;50.832;4.864;2023-12-20T10:40:31;5.90;;;1.95;;
82990;SDS011;72806;50.832;4.864;2023-12-20T10:43:03;6.05;;;1.55;;
82990;SDS011;72806;50.832;4.864;2023-12-20T10:45:31;7.28;;;2.00;;
82990;SDS011;72806;50.832;4.864;2023-12-20T10:47:58;10.20;;;2.67;;
82990;SDS011;72806;50.832;4.864;2023-12-20T10:50:26;7.18;;;2.50;;
82990;SDS011;72806;50.832;4.864;2023-12-20T10:52:56;5.30;;;1.77;;
82990;SDS011;72806;50.832;4.864;2023-12-20T10:55:24;9.73;;;2.20;;
82990;SDS011;72806;50.832;4.864;2023-12-20T10:57:51;7.90;;;1.52;;
82990;SDS011;72806;50.832;4.864;2023-12-20T11:00:21;12.32;;;2.22;;
82990;SDS011;72806;50.832;4.864;2023-12-20T11:02:50;6.88;;;1.83;;
82990;SDS011;72806;50.832;4.864;2023-12-20T11:05:24;5.07;;;2.03;;
82990;SDS011;72806;50.832;4.864;2023-12-20T11:08:00;12.98;;;2.15;;
82990;SDS011;72806;50.832;4.864;2023-12-20T11:10:35;9.02;;;2.33;;
82990;SDS011;72806;50.832;4.864;2023-12-20T11:13:10;5.15;;;2.03;;
82990;SDS011;72806;50.832;4.864;2023-12-20T11:15:43;8.93;;;2.38;;
82990;SDS011;72806;50.832;4.864;2023-12-20T11:18:11;9.98;;;1.92;;
82990;SDS011;72806;50.832;4.864;2023-12-20T11:20:38;12.35;;;2.22;;
82990;SDS011;72806;50.832;4.864;2023-12-20T11:23:08;6.70;;;1.92;;
82990;SDS011;72806;50.832;4.864;2023-12-20T11:25:48;5.40;;;2.28;;
82990;SDS011;72806;50.832;4.864;2023-12-20T11:28:20;7.28;;;2.28;;
82990;SDS011;72806;50.832;4.864;2023-12-20T11:30:50;7.15;;;2.00;;
82990;SDS011;72806;50.832;4.864;2023-12-20T11:33:21;9.73;;;2.30;;
82990;SDS011;72806;50.832;4.864;2023-12-20T11:35:49;6.78;;;2.30;;
82990;SDS011;72806;50.832;4.864;2023-12-20T11:38:19;8.90;;;2.08;;
82990;SDS011;72806;50.832;4.864;2023-12-20T11:40:47;11.27;;;2.10;;
82990;SDS011;72806;50.832;4.864;2023-12-20T11:43:29;5.03;;;2.17;;
82990;SDS011;72806;50.832;4.864;2023-12-20T11:46:02;7.78;;;2.25;;
82990;SDS011;72806;50.832;4.864;2023-12-20T11:48:31;10.07;;;2.60;;
82990;SDS011;72806;50.832;4.864;2023-12-20T11:50:58;7.93;;;2.00;;
82990;SDS011;72806;50.832;4.864;2023-12-20T11:53:26;11.23;;;1.83;;
82990;SDS011;72806;50.832;4.864;2023-12-20T11:55:54;8.50;;;1.95;;
82990;SDS011;72806;50.832;4.864;2023-12-20T11:58:21;10.90;;;2.40;;
82990;SDS011;72806;50.832;4.864;2023-12-20T12:00:49;6.57;;;1.90;;
82990;SDS011;72806;50.832;4.864;2023-12-20T12:03:17;4.15;;;1.67;;
82990;SDS011;72806;50.832;4.864;2023-12-20T12:05:46;7.38;;;1.98;;
82990;SDS011;72806;50.832;4.864;2023-12-20T12:08:14;10.40;;;2.13;;
82990;SDS011;72806;50.832;4.864;2023-12-20T12:10:43;3.03;;;1.67;;
82990;SDS011;72806;50.832;4.864;2023-12-20T12:13:11;12.00;;;2.75;;
82990;SDS011;72806;50.832;4.864;2023-12-20T12:15:39;9.32;;;2.65;;
82990;SDS011;72806;50.832;4.864;2023-12-20T12:18:07;11.70;;;2.78;;
82990;SDS011;72806;50.832;4.864;2023-12-20T12:20:35;12.07;;;3.03;;
82990;SDS011;72806;50.832;4.864;2023-12-20T12:23:03;8.23;;;2.20;;
82990;SDS011;72806;50.832;4.864;2023-12-20T12:25:31;9.13;;;1.95;;
82990;SDS011;72806;50.832;4.864;2023-12-20T12:28:02;10.60;;;2.17;;
82990;SDS011;72806;50.832;4.864;2023-12-20T12:30:30;2.33;;;1.48;;
82990;SDS011;72806;50.832;4.864;2023-12-20T12:32:57;7.57;;;1.80;;
82990;SDS011;72806;50.832;4.864;2023-12-20T12:35:24;9.25;;;2.97;;
82990;SDS011;72806;50.832;4.864;2023-12-20T12:37:51;12.63;;;2.85;;
82990;SDS011;72806;50.832;4.864;2023-12-20T12:40:18;7.90;;;2.03;;
82990;SDS011;72806;50.832;4.864;2023-12-20T12:42:46;9.35;;;2.33;;
82990;SDS011;72806;50.832;4.864;2023-12-20T12:45:14;10.63;;;2.33;;
82990;SDS011;72806;50.832;4.864;2023-12-20T12:47:41;9.68;;;2.38;;
82990;SDS011;72806;50.832;4.864;2023-12-20T12:50:09;8.35;;;2.10;;
82990;SDS011;72806;50.832;4.864;2023-12-20T12:52:36;9.63;;;2.05;;
82990;SDS011;72806;50.832;4.864;2023-12-20T12:55:03;12.65;;;2.33;;
82990;SDS011;72806;50.832;4.864;2023-12-20T12:57:31;9.70;;;2.40;;
82990;SDS011;72806;50.832;4.864;2023-12-20T12:59:58;10.55;;;2.45;;
82990;SDS011;72806;50.832;4.864;2023-12-20T13:02:27;9.27;;;2.42;;
82990;SDS011;72806;50.832;4.864;2023-12-20T13:04:54;11.75;;;2.42;;
82990;SDS011;72806;50.832;4.864;2023-12-20T13:07:21;11.63;;;2.70;;
82990;SDS011;72806;50.832;4.864;2023-12-20T13:09:49;14.75;;;2.75;;
82990;SDS011;72806;50.832;4.864;2023-12-20T13:12:16;8.10;;;2.40;;
82990;SDS011;72806;50.832;4.864;2023-12-20T13:14:43;4.18;;;1.77;;
82990;SDS011;72806;50.832;4.864;2023-12-20T13:17:10;12.32;;;2.60;;
82990;SDS011;72806;50.832;4.864;2023-12-20T13:19:39;8.85;;;2.58;;
82990;SDS011;72806;50.832;4.864;2023-12-20T13:22:06;11.10;;;3.22;;
82990;SDS011;72806;50.832;4.864;2023-12-20T13:24:34;10.05;;;2.90;;
82990;SDS011;72806;50.832;4.864;2023-12-20T13:27:01;10.00;;;3.03;;
82990;SDS011;72806;50.832;4.864;2023-12-20T13:29:28;7.22;;;2.15;;
82990;SDS011;72806;50.832;4.864;2023-12-20T13:31:55;10.55;;;3.08;;
82990;SDS011;72806;50.832;4.864;2023-12-20T13:34:22;11.32;;;3.03;;
82990;SDS011;72806;50.832;4.864;2023-12-20T13:36:51;11.05;;;3.38;;
82990;SDS011;72806;50.832;4.864;2023-12-20T13:39:18;16.10;;;3.95;;
82990;SDS011;72806;50.832;4.864;2023-12-20T13:41:46;13.63;;;2.70;;
82990;SDS011;72806;50.832;4.864;2023-12-20T13:44:13;11.52;;;3.00;;
82990;SDS011;72806;50.832;4.864;2023-12-20T13:46:41;13.20;;;3.45;;
82990;SDS011;72806;50.832;4.864;2023-12-20T13:49:08;12.52;;;3.40;;
82990;SDS011;72806;50.832;4.864;2023-12-20T13:51:35;12.55;;;2.50;;
82990;SDS011;72806;50.832;4.864;2023-12-20T13:54:04;16.67;;;2.90;;
82990;SDS011;72806;50.832;4.864;2023-12-20T13:56:31;7.90;;;3.05;;
82990;SDS011;72806;50.832;4.864;2023-12-20T13:58:59;9.60;;;2.15;;
82990;SDS011;72806;50.832;4.864;2023-12-20T14:01:26;9.43;;;2.05;;
82990;SDS011;72806;50.832;4.864;2023-12-20T14:03:54;15.30;;;3.65;;
82990;SDS011;72806;50.832;4.864;2023-12-20T14:06:21;8.77;;;2.78;;
82990;SDS011;72806;50.832;4.864;2023-12-20T14:08:48;12.77;;;2.58;;
82990;SDS011;72806;50.832;4.864;2023-12-20T14:11:16;8.38;;;2.47;;
82990;SDS011;72806;50.832;4.864;2023-12-20T14:13:44;9.70;;;1.80;;
82990;SDS011;72806;50.832;4.864;2023-12-20T14:16:11;9.02;;;3.05;;
82990;SDS011;72806;50.832;4.864;2023-12-20T14:18:39;10.80;;;2.75;;
82990;SDS011;72806;50.832;4.864;2023-12-20T14:21:07;13.55;;;3.03;;
82990;SDS011;72806;50.832;4.864;2023-12-20T14:23:35;11.95;;;3.20;;
82990;SDS011;72806;50.832;4.864;2023-12-20T14:26:02;11.82;;;3.33;;
82990;SDS011;72806;50.832;4.864;2023-12-20T14:28:31;8.52;;;2.22;;
82990;SDS011;72806;50.832;4.864;2023-12-20T14:30:58;9.32;;;2.50;;
82990;SDS011;72806;50.832;4.864;2023-12-20T14:33:25;6.20;;;2.33;;
82990;SDS011;72806;50.832;4.864;2023-12-20T14:35:52;9.50;;;2.10;;
82990;SDS011;72806;50.832;4.864;2023-12-20T14:38:19;7.68;;;2.30;;
82990;SDS011;72806;50.832;4.864;2023-12-20T14:40:47;10.32;;;2.83;;
82990;SDS011;72806;50.832;4.864;2023-12-20T14:43:14;11.68;;;2.53;;
82990;SDS011;72806;50.832;4.864;2023-12-20T14:45:44;5.82;;;1.55;;